YBTLYBHM

Guest
Details From YBTL - Townsville Intl
To YBHM - Hamilton I.
Flight Number -
Tags generated
Created
Modified
Stats Distance 140 nm / 260 km
Max Altitude 17,500 ft / 5,334 m
Waypoints 3
Social Downloads 4
Likes 0
Share VATSIM

Download

Looking for another format? Having issues loading an existing format? Contact us
Advertisement - Login to hide

Notes

Basic altitude profile: - Ascent Rate: 3000ft/min - Ascent Speed: 350kts - Cruise Altitude: 35000ft - Cruise Speed: 350kts - Descent Rate: 2500ft/min - Descent Speed: 250kts Options: - Use NATs: yes - Use PACOTS: yes - Use low airways: yes - Use high airways: yes

Route

YBTL WALTA YBHM

ID Type Via Altitude Latitude Longitude Leg Dist Tot Dist Heading (true) Name
O YBTL APT - 0 ft / 0 m -19.25135˚ 146.76502˚ - 0 nm - Townsville Intl
WALTA FIX - 17,500 ft / 5,334 m -19.69056˚ 147.59056˚ 53 nm 53 nm 120° / 119° -
O YBHM APT - 0 ft / 0 m -20.35748˚ 148.95164˚ 86 nm 140 nm 118° / 117° Hamilton I.

Altitude Profile

Advertisement - Login to hide

YBTL

Details ICAO YBTL (TSV)
Name Townsville Intl
Region Australia
Timezone Australia/Brisbane (UTC+10.0)
Stats Elevation 18 ft / 5 m (AMSL)
Location -19.251349° 146.765017°
Runways 2
Magnetic Variation 7.372° E

METAR

YBTL 272200Z 21008KT 9999 VCSH FEW005 SCT027 BKN044 21/17 Q1018

Decode

TAF

TAF YBTL 271705Z 2718/2818 15006KT 9999 SCT030 FM280100 09017KT 9999 SCT035 FM280900 13010KT 9999 SCT030

Decode

Departure Runways

ID Width Length Bearing (true) Bearing (mag) Surface Threshold Offset Overrun Length
01 148 ft / 45 m 8,035 ft / 2,449 m 24.00° 16.63° Asphalt 0 ft / 0 m 0 ft / 0 m
07 98 ft / 30 m 3,617 ft / 1,102 m 73.84° 66.47° Concrete 0 ft / 0 m 0 ft / 0 m
19 148 ft / 45 m 8,035 ft / 2,449 m 204.00° 196.63° Asphalt 0 ft / 0 m 0 ft / 0 m
25 98 ft / 30 m 3,617 ft / 1,102 m 253.84° 246.47° Concrete 0 ft / 0 m 0 ft / 0 m

YBHM

Details ICAO YBHM (HTI)
Name Hamilton I.
Region Australia
Timezone Australia/Lindeman (UTC+10.0)
Stats Elevation 14 ft / 4 m (AMSL)
Location -20.357481° 148.951639°
Runways 1
Magnetic Variation 8.150° E

METAR

YBHM 272204Z AUTO 16021KT 9999 // SCT013 SCT021 BKN032 21/20 Q1018

Decode

TAF

TAF YBHM 271715Z 2718/2806 15025KT 9999 -SHRA SCT020 SCT030 INTER 2718/2806 3000 SHRA BKN012

Decode

Destination Runways

ID Width Length Bearing (true) Bearing (mag) Surface Threshold Offset Overrun Length
14 148 ft / 45 m 5,792 ft / 1,765 m 143.04° 134.89° Asphalt 0 ft / 0 m 0 ft / 0 m
32 148 ft / 45 m 5,792 ft / 1,765 m 323.03° 314.88° Asphalt 0 ft / 0 m 0 ft / 0 m

Popular Alternatives